Time;durP1;ratioP1;P1;durP2;ratioP2;P2;SDS_P1;SDS_P2;PMS_P1;PMS_P2;Temp;Humidity;BMP_temperature;BMP_pressure;BME280_temperature;BME280_humidity;BME280_pressure;Samples;Min_cycle;Max_cycle;Signal;HPM_P1;HPM_P2
2022/09/06 00:02:05;;;;;;;6.10;3.35;;;;;;;11.50;63.21;101265.45;1682629;85;21234;-56
2022/09/06 00:05:12;;;;;;;4.80;3.00;;;;;;;11.48;63.21;101267.00;1682619;85;21245;-56
2022/09/06 00:08:17;;;;;;;10.60;2.87;;;;;;;11.46;63.24;101266.31;1682519;83;21254;-57
2022/09/06 00:11:22;;;;;;;5.05;2.55;;;;;;;11.43;63.26;101270.72;1682547;85;21199;-57
2022/09/06 00:14:28;;;;;;;5.67;2.65;;;;;;;11.41;63.26;101265.06;1682583;83;21254;-56
2022/09/06 00:17:34;;;;;;;4.30;2.72;;;;;;;11.38;63.29;101269.50;1682517;83;21333;-56
2022/09/06 00:20:40;;;;;;;6.30;2.50;;;;;;;11.37;63.35;101263.14;1682612;85;21175;-57
2022/09/06 00:23:46;;;;;;;6.78;3.05;;;;;;;11.38;63.38;101257.16;1682631;83;21238;-57
2022/09/06 00:26:55;;;;;;;5.87;2.55;;;;;;;11.37;63.38;101264.52;1686014;80;21235;-57
2022/09/06 00:29:59;;;;;;;5.87;3.20;;;;;;;11.34;63.33;101251.63;1683213;85;21176;-57
2022/09/06 00:33:04;;;;;;;6.50;3.00;;;;;;;11.31;63.32;101261.05;1678361;85;21225;-57
2022/09/06 00:36:09;;;;;;;7.28;2.70;;;;;;;11.25;63.27;101263.05;1676100;85;21354;-57
2022/09/06 00:39:15;;;;;;;5.70;2.80;;;;;;;11.18;63.28;101266.06;1693915;84;21311;-56
2022/09/06 00:42:20;;;;;;;4.03;2.50;;;;;;;11.12;63.34;101262.59;1667968;86;21199;-56
2022/09/06 00:45:26;;;;;;;5.35;2.83;;;;;;;11.05;63.38;101262.86;1702085;83;21184;-56
2022/09/06 00:48:32;;;;;;;5.37;2.85;;;;;;;10.98;63.40;101256.80;1667701;85;21234;-56
2022/09/06 00:51:38;;;;;;;5.12;3.12;;;;;;;10.89;63.40;101264.60;1687085;84;21338;-57
2022/09/06 00:54:45;;;;;;;4.58;2.60;;;;;;;10.79;63.41;101255.59;1667522;86;21247;-56
2022/09/06 00:57:52;;;;;;;5.12;3.02;;;;;;;10.70;63.42;101253.80;1684553;85;21239;-56
2022/09/06 01:00:57;;;;;;;4.92;3.20;;;;;;;10.61;63.47;101255.58;1678627;85;21272;-57
2022/09/06 01:04:03;;;;;;;4.42;2.87;;;;;;;10.54;63.55;101251.22;1684583;84;21249;-56
2022/09/06 01:08:01;;;;;;;6.40;3.50;;;;;;;10.48;63.60;101260.06;1693585;84;21211;-57
2022/09/06 01:11:37;;;;;;;7.10;3.15;;;;;;;10.42;63.59;101253.83;1677055;85;21216;-57
2022/09/06 01:15:16;;;;;;;4.75;3.02;;;;;;;10.32;63.64;101253.02;1684355;82;21207;-56
2022/09/06 01:18:54;;;;;;;5.65;3.17;;;;;;;10.25;63.66;101260.63;1684580;85;21211;-56
2022/09/06 01:22:40;;;;;;;7.33;3.20;;;;;;;10.14;63.65;101259.47;1681500;85;21244;-57
2022/09/06 01:26:35;;;;;;;6.87;3.58;;;;;;;10.05;63.68;101263.92;1679488;85;21228;-57
2022/09/06 01:29:58;;;;;;;7.17;3.47;;;;;;;9.95;63.71;101265.87;1687321;85;21206;-56
2022/09/06 01:33:26;;;;;;;5.87;3.65;;;;;;;9.85;63.78;101256.83;1669947;84;21261;-56
2022/09/06 01:36:33;;;;;;;6.33;3.33;;;;;;;9.77;63.81;101264.05;1687632;84;21285;-56
2022/09/06 01:39:41;;;;;;;6.22;3.62;;;;;;;9.68;63.91;101271.78;1686867;84;21202;-57
2022/09/06 01:42:47;;;;;;;7.05;3.95;;;;;;;9.64;63.99;101270.37;1687681;85;21319;-55
2022/09/06 01:46:24;;;;;;;8.58;3.58;;;;;;;9.58;64.02;101270.94;1687276;85;21262;-56
2022/09/06 01:50:01;;;;;;;6.55;3.90;;;;;;;9.53;64.05;101274.12;1669857;85;21310;-57
2022/09/06 01:53:30;;;;;;;5.70;3.50;;;;;;;9.48;64.12;101270.12;1673586;84;21234;-56
2022/09/06 01:57:06;;;;;;;11.93;4.05;;;;;;;9.42;64.15;101273.45;1687250;85;21242;-57
2022/09/06 02:00:18;;;;;;;5.20;3.25;;;;;;;9.36;64.17;101268.55;1697003;84;21210;-56
2022/09/06 02:03:49;;;;;;;6.25;3.70;;;;;;;9.28;64.20;101278.84;1696969;84;21759;-57
2022/09/06 02:06:59;;;;;;;7.20;3.60;;;;;;;9.23;64.24;101272.95;1695314;84;21263;-57
2022/09/06 02:10:15;;;;;;;5.75;3.72;;;;;;;9.18;64.30;101279.34;1688749;84;21199;-58
2022/09/06 02:13:20;;;;;;;6.65;3.50;;;;;;;9.15;64.36;101285.11;1685880;84;21818;-57
2022/09/06 02:16:29;;;;;;;7.85;4.58;;;;;;;9.06;64.24;101275.93;1687219;84;21226;-57
2022/09/06 02:20:04;;;;;;;7.33;3.40;;;;;;;9.00;64.21;101285.20;1687423;84;21227;-56
2022/09/06 02:23:11;;;;;;;6.33;3.90;;;;;;;8.96;64.30;101287.34;1687179;84;21297;-57
2022/09/06 02:26:24;;;;;;;7.22;3.92;;;;;;;8.93;64.38;101281.30;1685815;85;21234;-57
2022/09/06 02:29:29;;;;;;;5.55;3.58;;;;;;;8.92;64.51;101287.78;1684530;82;21225;-56
2022/09/06 02:32:36;;;;;;;6.42;3.90;;;;;;;8.92;64.61;101287.78;1681563;85;21718;-56
2022/09/06 02:35:50;;;;;;;6.20;3.77;;;;;;;8.89;64.63;101286.70;1676898;84;21184;-57
2022/09/06 02:38:55;;;;;;;6.97;3.80;;;;;;;8.85;64.65;101287.98;1694362;84;21259;-56
2022/09/06 02:42:03;;;;;;;9.00;3.98;;;;;;;8.84;64.69;101294.45;1685874;84;21237;-56
2022/09/06 02:45:08;;;;;;;6.58;3.77;;;;;;;8.80;64.68;101287.57;1681415;85;21218;-57
2022/09/06 02:48:15;;;;;;;7.05;3.47;;;;;;;8.75;64.67;101288.50;1680989;85;21212;-56
2022/09/06 02:51:15;;;;;;;6.28;3.42;;;;;;;8.72;64.72;101297.81;1685554;84;21208;-57
2022/09/06 02:54:21;;;;;;;9.05;3.50;;;;;;;8.69;64.71;101298.09;1685511;84;21216;-57
2022/09/06 02:57:27;;;;;;;6.50;3.67;;;;;;;8.65;64.80;101291.70;1685491;84;21728;-57
2022/09/06 03:00:32;;;;;;;13.15;3.55;;;;;;;8.63;64.83;101295.06;1685320;84;21195;-57
2022/09/06 03:03:37;;;;;;;7.67;3.70;;;;;;;8.61;64.89;101295.21;1685374;84;21196;-54
2022/09/06 03:06:43;;;;;;;7.47;3.95;;;;;;;8.59;64.94;101300.47;1686018;84;21248;-56
2022/09/06 03:09:48;;;;;;;9.03;3.70;;;;;;;8.58;64.97;101302.81;1677052;84;21196;-57
2022/09/06 03:12:55;;;;;;;12.37;3.55;;;;;;;8.57;65.01;101299.23;1679699;85;21309;-56
2022/09/06 03:16:03;;;;;;;8.18;3.87;;;;;;;8.55;65.02;101303.09;1664725;85;21189;-57
2022/09/06 03:19:08;;;;;;;5.45;3.30;;;;;;;8.54;65.05;101309.56;1685016;84;21740;-56
2022/09/06 03:22:13;;;;;;;5.78;3.30;;;;;;;8.50;65.03;101311.70;1678187;84;21548;-58
2022/09/06 03:25:19;;;;;;;7.62;3.33;;;;;;;8.46;65.02;101316.22;1680942;85;21228;-58
2022/09/06 03:28:25;;;;;;;5.40;3.08;;;;;;;8.44;65.07;101319.59;1684780;84;21264;-58
2022/09/06 03:31:30;;;;;;;7.78;3.52;;;;;;;8.41;65.10;101322.59;1705079;80;21284;-58
2022/09/06 03:34:35;;;;;;;5.30;3.25;;;;;;;8.38;65.11;101325.11;1703261;84;21217;-58
2022/09/06 03:37:41;;;;;;;5.97;3.42;;;;;;;8.36;65.12;101327.59;1704422;83;21745;-58
2022/09/06 03:40:47;;;;;;;6.45;3.12;;;;;;;8.36;65.18;101333.05;1727160;82;21611;-59
2022/09/06 03:43:52;;;;;;;9.83;3.65;;;;;;;8.37;65.27;101338.37;1716987;82;21237;-57
2022/09/06 03:46:59;;;;;;;4.85;3.40;;;;;;;8.39;65.33;101340.95;1733715;82;21205;-58
2022/09/06 03:50:05;;;;;;;4.78;2.98;;;;;;;8.40;65.37;101338.61;1733480;82;21213;-59
2022/09/06 03:53:11;;;;;;;7.30;3.30;;;;;;;8.41;65.36;101337.60;1733338;82;21260;-59
2022/09/06 03:56:16;;;;;;;5.55;3.45;;;;;;;8.41;65.35;101346.66;1733310;82;21737;-58
2022/09/06 03:59:23;;;;;;;7.30;3.95;;;;;;;8.42;65.43;101351.63;1743953;82;21272;-59
2022/09/06 04:02:30;;;;;;;5.85;3.85;;;;;;;8.46;65.54;101348.48;1741758;82;21261;-59
2022/09/06 04:05:36;;;;;;;9.15;3.47;;;;;;;8.49;65.59;101348.69;1744139;82;21728;-60
2022/09/06 04:08:45;;;;;;;8.98;3.60;;;;;;;8.54;65.58;101355.96;1740163;82;21248;-59
2022/09/06 04:11:55;;;;;;;5.65;3.27;;;;;;;8.57;65.55;101348.86;1712865;83;21201;-61
2022/09/06 04:15:01;;;;;;;7.75;4.03;;;;;;;8.61;65.61;101354.41;1734188;82;21328;-60
2022/09/06 04:18:07;;;;;;;7.65;4.95;;;;;;;8.67;65.66;101348.39;1733816;82;21253;-58
2022/09/06 04:21:15;;;;;;;10.48;5.37;;;;;;;8.71;65.69;101350.69;1734044;82;21777;-60
2022/09/06 04:24:21;;;;;;;9.18;5.10;;;;;;;8.76;65.69;101359.33;1733340;82;21185;-59
2022/09/06 04:27:27;;;;;;;9.53;5.75;;;;;;;8.82;65.79;101364.71;1712494;83;21189;-60
2022/09/06 04:30:32;;;;;;;8.18;5.40;;;;;;;8.89;65.88;101357.70;1733703;79;21724;-60
2022/09/06 04:33:39;;;;;;;6.97;4.12;;;;;;;8.97;65.92;101362.80;1713356;83;21227;-60
2022/09/06 04:36:49;;;;;;;6.22;3.83;;;;;;;9.05;65.93;101362.95;1691725;84;21189;-60
2022/09/06 04:39:55;;;;;;;7.17;3.92;;;;;;;9.12;65.95;101360.52;1707154;84;21801;-60
2022/09/06 04:43:01;;;;;;;6.83;4.17;;;;;;;9.18;65.92;101352.27;1690934;84;21742;-60
2022/09/06 04:46:28;;;;;;;7.17;3.67;;;;;;;9.22;65.94;101357.30;1691882;84;21252;-61
2022/09/06 04:49:34;;;;;;;4.87;3.30;;;;;;;9.26;65.95;101355.14;1707594;84;21193;-60
2022/09/06 04:52:41;;;;;;;5.30;3.25;;;;;;;9.32;66.01;101351.83;1707384;84;21213;-57
2022/09/06 04:55:48;;;;;;;5.05;3.10;;;;;;;9.38;66.05;101358.95;1696618;83;21256;-59
2022/09/06 04:58:56;;;;;;;8.20;3.42;;;;;;;9.44;66.09;101357.00;1701608;82;21247;-60
2022/09/06 05:02:02;;;;;;;4.83;3.12;;;;;;;9.49;66.06;101357.92;1697920;82;21202;-59
2022/09/06 05:05:09;;;;;;;4.75;2.90;;;;;;;9.55;66.10;101362.80;1686526;84;21720;-63
2022/09/06 05:08:16;;;;;;;6.05;3.08;;;;;;;9.62;66.15;101363.96;1732066;82;21260;-61
2022/09/06 05:11:42;;;;;;;4.45;2.65;;;;;;;9.68;66.15;101362.87;1734133;82;21201;-60
2022/09/06 05:14:52;;;;;;;5.45;3.17;;;;;;;9.75;66.17;101369.99;1719153;82;21264;-62
2022/09/06 05:17:59;;;;;;;5.95;2.70;;;;;;;9.81;66.20;101360.70;1681262;84;21204;-61
2022/09/06 05:21:25;;;;;;;5.08;2.55;;;;;;;9.92;66.33;101366.00;1712480;82;21196;-57
2022/09/06 05:24:34;;;;;;;6.62;2.58;;;;;;;10.03;66.34;101369.06;1705295;84;21283;-57
2022/09/06 05:27:50;;;;;;;5.65;2.83;;;;;;;10.11;66.33;101371.95;1703792;82;21789;-56
2022/09/06 05:30:55;;;;;;;7.53;3.17;;;;;;;10.18;66.28;101364.35;1711704;83;21741;-55
2022/09/06 05:34:00;;;;;;;7.42;4.05;;;;;;;10.25;66.29;101364.63;1722300;82;21233;-56
2022/09/06 05:37:07;;;;;;;6.70;3.17;;;;;;;10.33;66.32;101362.00;1708318;82;21241;-57
2022/09/06 05:40:14;;;;;;;5.65;2.90;;;;;;;10.40;66.36;101359.88;1722304;82;21232;-55
2022/09/06 05:43:22;;;;;;;3.50;2.52;;;;;;;10.50;66.38;101357.96;1706822;82;21251;-58
2022/09/06 05:46:28;;;;;;;6.40;3.33;;;;;;;10.58;66.36;101359.09;1688158;85;21219;-59
2022/09/06 05:49:35;;;;;;;5.37;2.50;;;;;;;10.66;66.41;101360.53;1659370;84;21886;-59
2022/09/06 05:52:42;;;;;;;4.80;2.70;;;;;;;10.77;66.45;101363.06;1649776;86;21805;-57
2022/09/06 05:55:50;;;;;;;4.35;2.50;;;;;;;10.87;66.44;101363.88;1712592;83;21207;-57
2022/09/06 05:59:29;;;;;;;4.08;2.67;;;;;;;10.95;66.40;101358.48;1675747;85;21719;-56
2022/09/06 06:02:38;;;;;;;7.33;2.17;;;;;;;11.04;66.38;101361.66;1675079;85;21294;-55
2022/09/06 06:05:46;;;;;;;5.90;2.27;;;;;;;11.15;66.42;101367.78;1672791;85;21731;-56
2022/09/06 06:08:52;;;;;;;2.90;2.17;;;;;;;11.24;66.46;101368.21;1670795;85;21250;-54
2022/09/06 06:11:59;;;;;;;5.75;2.30;;;;;;;11.33;66.37;101369.16;1671055;85;21219;-57
2022/09/06 06:15:08;;;;;;;6.35;2.00;;;;;;;11.37;66.26;101376.08;1680986;85;22075;-57
2022/09/06 06:18:15;;;;;;;4.15;2.20;;;;;;;11.44;66.26;101377.15;1680538;85;21241;-56
2022/09/06 06:21:27;;;;;;;6.42;2.00;;;;;;;11.51;66.24;101375.52;1669337;85;21395;-58
2022/09/06 06:24:35;;;;;;;4.08;2.15;;;;;;;11.59;66.27;101382.45;1682077;85;21331;-58
2022/09/06 06:27:43;;;;;;;2.35;1.75;;;;;;;11.69;66.28;101388.72;1681861;84;21783;-57
2022/09/06 06:30:51;;;;;;;5.15;2.00;;;;;;;11.78;66.24;101384.52;1656769;85;21930;-57
2022/09/06 06:34:02;;;;;;;2.52;1.60;;;;;;;11.87;66.23;101381.33;1692746;81;21276;-57
2022/09/06 06:37:10;;;;;;;2.55;1.65;;;;;;;11.96;66.20;101383.11;1715616;82;21264;-57
2022/09/06 06:40:19;;;;;;;2.60;1.57;;;;;;;12.06;66.14;101392.11;1684835;83;21219;-56
2022/09/06 06:43:27;;;;;;;7.90;1.90;;;;;;;12.15;66.05;101384.77;1699230;83;21800;-59
2022/09/06 06:46:37;;;;;;;2.50;1.60;;;;;;;12.24;66.02;101386.57;1727291;81;21171;-57
2022/09/06 06:49:45;;;;;;;2.40;1.20;;;;;;;12.36;66.09;101395.73;1719762;83;21260;-58
2022/09/06 06:52:54;;;;;;;3.22;1.55;;;;;;;12.52;66.06;101394.46;1693094;83;21229;-60
2022/09/06 06:56:01;;;;;;;1.75;1.37;;;;;;;12.68;65.97;101398.66;1693198;83;21200;-56
2022/09/06 06:59:08;;;;;;;1.60;1.27;;;;;;;12.86;65.83;101394.45;1717872;82;21503;-59
2022/09/06 07:02:14;;;;;;;2.77;1.25;;;;;;;13.00;65.73;101397.94;1721959;81;21290;-56
2022/09/06 07:05:21;;;;;;;1.20;1.05;;;;;;;13.13;65.62;101392.83;1713964;83;21247;-58
2022/09/06 07:08:30;;;;;;;3.30;1.20;;;;;;;13.23;65.44;101410.05;1713863;81;21296;-57
2022/09/06 07:11:37;;;;;;;2.40;1.30;;;;;;;13.34;65.30;101406.48;1698066;84;21288;-60
2022/09/06 07:14:47;;;;;;;1.62;1.22;;;;;;;13.44;65.17;101407.70;1686560;84;21248;-59
2022/09/06 07:17:54;;;;;;;1.90;1.47;;;;;;;13.54;65.10;101401.00;1691119;83;21786;-56
2022/09/06 07:20:59;;;;;;;1.60;1.17;;;;;;;13.71;65.06;101402.39;1711491;83;21268;-57
2022/09/06 07:24:08;;;;;;;2.37;1.20;;;;;;;13.84;64.96;101404.13;1684218;82;21213;-58
2022/09/06 07:27:16;;;;;;;3.15;1.10;;;;;;;13.90;64.80;101398.80;1682685;85;21797;-58
2022/09/06 07:30:27;;;;;;;1.55;1.00;;;;;;;13.88;64.55;101402.73;1706657;83;21189;-59
2022/09/06 07:33:35;;;;;;;2.75;1.15;;;;;;;13.97;64.55;101407.22;1694080;83;21335;-59
2022/09/06 07:36:48;;;;;;;1.60;1.02;;;;;;;14.01;64.39;101411.34;1667859;83;22085;-58
2022/09/06 07:39:55;;;;;;;1.25;0.90;;;;;;;14.05;64.28;101416.86;1741435;82;21348;-58
2022/09/06 07:43:07;;;;;;;2.22;1.10;;;;;;;14.03;64.09;101410.66;1697048;83;21268;-57
2022/09/06 07:46:15;;;;;;;2.90;1.20;;;;;;;14.06;64.08;101406.17;1680131;83;21243;-59
2022/09/06 07:49:25;;;;;;;2.27;0.90;;;;;;;14.16;64.07;101405.48;1718763;82;21234;-57
2022/09/06 07:52:38;;;;;;;1.35;1.07;;;;;;;14.25;64.01;101408.09;1695105;83;21252;-60
2022/09/06 07:55:47;;;;;;;2.25;1.32;;;;;;;14.26;63.85;101396.53;1678991;83;21210;-58
2022/09/06 07:58:55;;;;;;;1.50;1.10;;;;;;;14.32;63.82;101395.83;1683367;83;21237;-58
2022/09/06 08:02:02;;;;;;;4.60;1.25;;;;;;;14.47;63.90;101395.47;1663920;83;21273;-58
2022/09/06 08:05:14;;;;;;;0.93;0.80;;;;;;;14.62;63.86;101408.33;1658828;86;21216;-60
2022/09/06 08:08:25;;;;;;;2.98;1.00;;;;;;;14.67;63.63;101401.77;1651471;85;21307;-58
2022/09/06 08:11:37;;;;;;;1.60;0.90;;;;;;;14.75;63.60;101398.98;1672329;85;21681;-58
2022/09/06 08:14:43;;;;;;;1.87;1.00;;;;;;;14.79;63.42;101397.58;1656659;86;21228;-58
2022/09/06 08:17:48;;;;;;;2.22;1.00;;;;;;;14.81;63.35;101401.53;1648433;86;21316;-59
2022/09/06 08:20:57;;;;;;;1.52;1.07;;;;;;;14.89;63.38;101386.34;1648279;86;21221;-58
2022/09/06 08:24:10;;;;;;;0.98;0.80;;;;;;;14.99;63.35;101396.13;1649282;84;21618;-58
2022/09/06 08:27:18;;;;;;;4.00;1.20;;;;;;;15.07;63.23;101370.91;1667374;85;21583;-57
2022/09/06 08:30:26;;;;;;;1.10;1.00;;;;;;;15.16;63.17;101367.92;1670432;83;21240;-59
2022/09/06 08:33:34;;;;;;;1.72;0.90;;;;;;;15.25;63.11;101366.86;1691330;82;21183;-57
2022/09/06 08:36:48;;;;;;;2.67;0.88;;;;;;;15.40;63.21;101358.16;1698641;81;21271;-58
2022/09/06 08:39:57;;;;;;;3.50;1.00;;;;;;;15.57;63.22;101351.46;1711288;83;21177;-58
2022/09/06 08:43:02;;;;;;;1.85;0.80;;;;;;;15.71;63.05;101354.83;1710916;84;21667;-59
2022/09/06 08:46:15;;;;;;;1.57;0.80;;;;;;;15.75;62.73;101360.30;1711816;83;21271;-58
2022/09/06 08:49:20;;;;;;;0.98;0.65;;;;;;;15.69;62.51;101354.14;1725942;82;21813;-59
2022/09/06 08:52:53;;;;;;;3.45;1.07;;;;;;;15.68;62.57;101343.28;1742564;82;21263;-58
2022/09/06 08:56:13;;;;;;;1.30;0.60;;;;;;;15.72;62.62;101348.25;1713000;83;21209;-58
2022/09/06 08:59:21;;;;;;;1.00;0.60;;;;;;;15.85;62.63;101347.10;1687462;85;21236;-58
2022/09/06 09:02:36;;;;;;;0.90;0.60;;;;;;;15.96;62.43;101344.41;1742453;82;21204;-57
2022/09/06 09:06:08;;;;;;;1.07;0.60;;;;;;;16.03;62.23;101344.84;1744479;82;21872;-58
2022/09/06 09:09:21;;;;;;;1.60;0.80;;;;;;;16.08;62.07;101345.14;1717304;83;21415;-57
2022/09/06 09:12:31;;;;;;;1.35;0.90;;;;;;;16.06;61.92;101336.17;1716659;83;21280;-57
2022/09/06 09:15:38;;;;;;;0.72;0.50;;;;;;;15.96;61.69;101344.41;1744317;82;21204;-57
2022/09/06 09:18:45;;;;;;;1.57;0.62;;;;;;;15.84;61.59;101334.86;1743801;82;21264;-56
2022/09/06 09:21:52;;;;;;;1.90;0.50;;;;;;;15.76;61.59;101337.70;1743079;82;21232;-57
2022/09/06 09:24:58;;;;;;;0.40;0.30;;;;;;;15.74;61.56;101333.74;1726269;82;21217;-57
2022/09/06 09:28:06;;;;;;;1.82;0.30;;;;;;;15.74;61.43;101340.64;1713998;81;21834;-56
2022/09/06 09:31:16;;;;;;;1.22;0.50;;;;;;;15.70;61.39;101331.00;1713493;83;21222;-56
2022/09/06 09:34:40;;;;;;;1.35;0.40;;;;;;;15.71;61.38;101341.02;1715291;82;21750;-57
2022/09/06 09:37:49;;;;;;;1.17;0.70;;;;;;;15.68;61.28;101331.70;1736794;82;21206;-56
2022/09/06 09:41:01;;;;;;;1.85;0.50;;;;;;;15.61;61.15;101337.64;1704814;84;21741;-55
2022/09/06 09:44:11;;;;;;;0.50;0.50;;;;;;;15.55;61.12;101332.87;1704799;84;21802;-57
2022/09/06 09:47:31;;;;;;;0.33;0.33;;;;;;;15.53;61.05;101340.98;1704842;84;21729;-55
2022/09/06 09:50:40;;;;;;;1.65;0.70;;;;;;;15.53;61.10;101336.84;1704702;84;21257;-56
2022/09/06 09:54:03;;;;;;;0.53;0.42;;;;;;;15.52;61.00;101344.80;1704425;84;21741;-56
2022/09/06 09:57:09;;;;;;;0.60;0.60;;;;;;;15.58;61.04;101353.20;1704338;84;21213;-56
2022/09/06 10:00:18;;;;;;;1.30;0.88;;;;;;;15.50;60.85;101344.98;1705485;84;21611;-58
2022/09/06 10:03:28;;;;;;;1.57;0.88;;;;;;;15.52;60.83;101351.70;1698629;84;21214;-58
2022/09/06 10:06:38;;;;;;;0.93;0.50;;;;;;;15.57;60.76;101360.28;1700208;84;21224;-59
2022/09/06 10:09:55;;;;;;;1.35;0.50;;;;;;;15.60;60.62;101348.33;1685375;84;21326;-58
2022/09/06 10:13:30;;;;;;;1.27;0.50;;;;;;;15.62;60.47;101358.67;1698930;84;21869;-58
2022/09/06 10:16:51;;;;;;;1.85;0.50;;;;;;;15.64;60.50;101355.73;1702304;84;21217;-57
2022/09/06 10:20:00;;;;;;;0.53;0.53;;;;;;;15.70;60.34;101338.41;1703937;84;21220;-57
2022/09/06 10:23:25;;;;;;;0.88;0.80;;;;;;;15.71;60.19;101345.16;1725039;82;21241;-57
2022/09/06 10:27:05;;;;;;;2.17;0.60;;;;;;;15.63;60.06;101341.09;1709520;82;21276;-57
2022/09/06 10:30:17;;;;;;;1.37;0.88;;;;;;;15.65;60.07;101345.04;1679706;83;21243;-59
2022/09/06 10:33:45;;;;;;;1.22;0.57;;;;;;;15.65;59.93;101347.80;1714418;83;21587;-58
2022/09/06 10:37:27;;;;;;;1.32;0.70;;;;;;;15.60;59.88;101340.59;1701263;83;21278;-58
2022/09/06 10:41:02;;;;;;;0.55;0.50;;;;;;;15.69;59.93;101338.95;1741661;82;21251;-58
2022/09/06 10:44:27;;;;;;;1.20;0.70;;;;;;;15.75;59.70;101335.45;1744400;82;21276;-59
2022/09/06 10:47:38;;;;;;;5.75;0.70;;;;;;;15.86;59.69;101335.51;1702264;84;21259;-59
2022/09/06 10:51:08;;;;;;;1.20;0.50;;;;;;;16.05;59.56;101333.09;1672670;86;21203;-58
2022/09/06 10:54:17;;;;;;;3.05;0.70;;;;;;;16.17;59.51;101338.47;1651995;84;21281;-58
2022/09/06 10:57:30;;;;;;;1.40;0.65;;;;;;;16.27;59.41;101328.02;1685005;84;21810;-58
2022/09/06 11:00:46;;;;;;;3.80;0.85;;;;;;;16.33;59.22;101334.70;1692571;82;21241;-60
2022/09/06 11:03:55;;;;;;;1.85;0.80;;;;;;;16.28;58.97;101335.23;1702101;82;21282;-60
2022/09/06 11:07:06;;;;;;;1.05;0.72;;;;;;;16.15;58.79;101342.48;1745837;82;21267;-59
2022/09/06 11:10:27;;;;;;;2.17;0.80;;;;;;;16.08;58.71;101338.23;1745541;82;21248;-59
2022/09/06 11:13:35;;;;;;;2.52;0.75;;;;;;;16.05;58.67;101335.84;1732861;82;21769;-58
2022/09/06 11:16:46;;;;;;;1.90;0.70;;;;;;;16.12;58.63;101340.97;1719932;82;21602;-59
2022/09/06 11:20:13;;;;;;;2.80;0.60;;;;;;;16.15;58.46;101329.54;1672944;85;21215;-58
2022/09/06 11:23:49;;;;;;;0.93;0.60;;;;;;;16.13;58.34;101327.48;1654799;86;21337;-57
2022/09/06 11:27:36;;;;;;;0.62;0.62;;;;;;;16.17;58.40;101337.09;1655516;86;21225;-59
2022/09/06 11:30:45;;;;;;;2.55;0.90;;;;;;;16.16;58.22;101340.05;1667659;85;21445;-59
2022/09/06 11:33:55;;;;;;;6.75;0.95;;;;;;;15.94;57.96;101332.16;1720378;82;21271;-60
2022/09/06 11:37:09;;;;;;;2.77;0.78;;;;;;;15.83;58.05;101338.14;1744203;82;21713;-59
2022/09/06 11:40:31;;;;;;;2.47;1.00;;;;;;;15.79;58.04;101337.32;1719943;81;21287;-60
2022/09/06 11:43:53;;;;;;;2.15;0.75;;;;;;;15.68;57.91;101338.60;1717387;83;21239;-60
2022/09/06 11:47:06;;;;;;;1.22;0.80;;;;;;;15.64;57.86;101342.79;1717647;83;21196;-59
2022/09/06 11:50:32;;;;;;;3.60;1.10;;;;;;;15.59;57.77;101337.47;1714881;83;21287;-57
2022/09/06 11:53:58;;;;;;;0.98;0.80;;;;;;;15.60;57.75;101330.38;1689943;83;21291;-59
2022/09/06 11:57:26;;;;;;;1.45;0.80;;;;;;;15.63;57.71;101336.08;1683848;85;21276;-59
2022/09/06 12:00:35;;;;;;;0.82;0.70;;;;;;;15.63;57.63;101332.80;1688145;85;21220;-59
2022/09/06 12:03:57;;;;;;;1.92;0.88;;;;;;;15.63;57.59;101336.08;1689353;82;21267;-60
2022/09/06 12:07:19;;;;;;;3.08;1.27;;;;;;;15.58;57.45;101338.02;1717841;83;21184;-57
2022/09/06 12:10:49;;;;;;;1.20;0.95;;;;;;;15.52;57.38;101342.91;1716695;83;21603;-59
2022/09/06 12:14:16;;;;;;;2.33;1.05;;;;;;;15.48;57.31;101339.28;1688615;84;21238;-60
2022/09/06 12:17:26;;;;;;;1.62;0.80;;;;;;;15.38;57.31;101332.63;1697754;83;21309;-57
2022/09/06 12:20:59;;;;;;;1.37;0.82;;;;;;;15.29;57.19;101337.84;1710029;82;21180;-55
2022/09/06 12:24:04;;;;;;;1.52;0.82;;;;;;;15.19;57.22;101328.11;1717643;83;21199;-57
2022/09/06 12:27:26;;;;;;;1.95;0.88;;;;;;;15.14;57.19;101327.79;1707741;83;21658;-58
2022/09/06 12:30:48;;;;;;;3.58;1.17;;;;;;;15.20;57.19;101325.67;1715427;83;21204;-57
2022/09/06 12:33:55;;;;;;;1.27;0.80;;;;;;;15.21;57.01;101325.48;1716487;83;21207;-58
2022/09/06 12:37:08;;;;;;;1.70;0.78;;;;;;;15.27;57.04;101324.75;1715280;83;21244;-56
2022/09/06 12:40:13;;;;;;;1.52;1.10;;;;;;;15.39;56.96;101322.47;1699154;81;21745;-57
2022/09/06 12:43:20;;;;;;;4.40;1.50;;;;;;;15.45;56.84;101314.31;1706738;82;21629;-57
2022/09/06 12:46:27;;;;;;;3.25;1.70;;;;;;;15.54;56.72;101306.30;1710026;84;21710;-58
2022/09/06 12:49:34;;;;;;;1.52;1.10;;;;;;;15.56;56.49;101313.88;1726858;83;21205;-59
2022/09/06 12:52:59;;;;;;;3.95;1.80;;;;;;;15.55;56.44;101314.93;1722315;82;21229;-58
2022/09/06 12:56:18;;;;;;;4.62;3.45;;;;;;;15.59;56.41;101305.22;1741900;82;21213;-59
2022/09/06 12:59:31;;;;;;;4.15;3.75;;;;;;;15.59;56.26;101309.36;1749095;80;21272;-60
2022/09/06 13:02:42;;;;;;;1.67;1.42;;;;;;;15.50;56.11;101303.58;1771620;80;21627;-55
2022/09/06 13:05:51;;;;;;;2.20;1.20;;;;;;;15.46;56.08;101309.11;1708774;81;21869;-59
2022/09/06 13:09:01;;;;;;;3.77;0.90;;;;;;;15.44;56.04;101309.84;1695404;83;21820;-59
2022/09/06 13:12:14;;;;;;;3.70;1.77;;;;;;;15.43;55.94;101308.66;1716805;83;21717;-59
2022/09/06 13:15:39;;;;;;;1.87;0.93;;;;;;;15.35;55.83;101309.52;1714257;83;21391;-58
2022/09/06 13:19:23;;;;;;;2.77;0.98;;;;;;;15.34;55.84;101310.57;1704334;84;21209;-57
2022/09/06 13:22:47;;;;;;;2.15;1.30;;;;;;;15.34;55.76;101316.09;1703791;83;21386;-59
2022/09/06 13:26:01;;;;;;;1.87;1.50;;;;;;;15.38;55.64;101319.34;1724992;83;21236;-59
2022/09/06 13:29:32;;;;;;;3.02;0.90;;;;;;;15.39;55.55;101312.81;1713578;83;21230;-58
2022/09/06 13:32:47;;;;;;;1.20;1.00;;;;;;;15.44;55.50;101305.70;1728776;83;21765;-60
2022/09/06 13:36:11;;;;;;;3.92;1.40;;;;;;;15.50;55.44;101304.96;1732310;82;22071;-55
2022/09/06 13:39:19;;;;;;;5.30;4.78;;;;;;;15.53;55.27;101307.34;1705896;83;21232;-55
2022/09/06 13:42:37;;;;;;;4.35;1.45;;;;;;;15.54;55.19;101308.22;1707768;82;21575;-55
2022/09/06 13:45:46;;;;;;;3.25;1.50;;;;;;;15.55;55.12;101303.02;1688772;84;21208;-55
2022/09/06 13:48:57;;;;;;;1.98;1.30;;;;;;;15.55;55.00;101312.68;1711777;83;21756;-54
2022/09/06 13:52:19;;;;;;;5.78;2.27;;;;;;;15.49;54.90;101301.84;1730396;83;21181;-55
2022/09/06 13:55:27;;;;;;;3.27;1.52;;;;;;;15.44;54.84;101297.43;1713675;82;21718;-55
2022/09/06 13:58:36;;;;;;;2.45;1.05;;;;;;;15.36;54.74;101301.59;1706406;84;21237;-56
2022/09/06 14:01:43;;;;;;;2.30;1.40;;;;;;;15.31;54.70;101308.70;1703976;84;21706;-57
2022/09/06 14:04:51;;;;;;;4.08;2.20;;;;;;;15.26;54.62;101296.84;1703286;83;21210;-61
2022/09/06 14:07:58;;;;;;;1.77;1.07;;;;;;;15.26;54.62;101296.84;1677229;84;21753;-58
2022/09/06 14:11:06;;;;;;;1.42;0.95;;;;;;;15.30;54.62;101294.58;1701216;84;21233;-60
2022/09/06 14:14:16;;;;;;;1.27;0.95;;;;;;;15.34;54.59;101310.57;1703495;84;21726;-58
2022/09/06 14:17:23;;;;;;;4.30;2.47;;;;;;;15.32;54.42;101289.73;1677364;84;21661;-57
2022/09/06 14:20:32;;;;;;;18.07;10.93;;;;;;;15.25;54.35;101292.88;1703638;84;21549;-56
2022/09/06 14:23:38;;;;;;;15.65;8.95;;;;;;;15.17;54.28;101293.81;1711063;82;21189;-56
2022/09/06 14:26:45;;;;;;;11.83;6.47;;;;;;;15.16;54.30;101291.23;1706552;82;21215;-57
2022/09/06 14:29:51;;;;;;;4.70;2.55;;;;;;;15.17;54.26;101288.30;1675654;85;21225;-57
2022/09/06 14:32:58;;;;;;;12.93;2.52;;;;;;;15.17;54.16;101292.94;1689434;84;21248;-57
2022/09/06 14:36:05;;;;;;;4.92;1.98;;;;;;;15.12;54.04;101290.73;1694166;84;21300;-58
2022/09/06 14:39:12;;;;;;;2.70;1.27;;;;;;;15.09;54.01;101293.86;1697703;84;21221;-57
2022/09/06 14:42:17;;;;;;;5.33;1.50;;;;;;;15.06;53.92;101290.09;1702878;82;21833;-56
2022/09/06 14:45:20;;;;;;;4.85;1.70;;;;;;;14.99;53.88;101289.09;1708758;84;21212;-58
2022/09/06 14:48:19;;;;;;;1.72;1.37;;;;;;;14.97;53.88;101294.80;1711936;84;21236;-56
2022/09/06 14:51:20;;;;;;;;;;;;;;;14.98;53.87;101297.87;1714980;84;21350;-58
2022/09/06 14:54:14;;;;;;;4.83;2.12;;;;;;;14.99;53.78;101295.98;1712653;82;20560;-56
2022/09/06 14:57:21;;;;;;;4.22;1.80;;;;;;;14.95;53.73;101296.86;1711820;84;21733;-55